This demonstration page uses our WeatherBlox Daily Observations layout. Learn more.

38.89511, -77.03637

Hourly Observations for April 18, 2015

Temp ( °F °C ) Dew Point ( °F °C ) Humidity (%) Winds ( mph kmh ) Pressure ( in mb ) Visibility ( mi km ) Precip ( " mm )
12:52 am 00:52 Mostly Cloudy 66 19 59 15 78 78 NNW 5 7 30 1016 10 16.09344 0 0
1:52 am 01:52 Partly Cloudy 66 19 57 14 73 73 N 3 6 30 1016 10 16.09344 0 0
2:52 am 02:52 Mostly Clear 64 18 57 14 78 78 Calm 29.97 1015 10 16.09344 0 0
3:52 am 03:52 Mostly Cloudy 63 17 57 14 83 83 Calm 29.97 1015 10 16.09344 0 0
4:52 am 04:52 Partly Cloudy 61 16 55 13 83 83 NNW 7 11 29.97 1015 10 16.09344 0 0
5:52 am 05:52 Partly Cloudy 61 16 54 12 77 77 N 5 7 30 1016 10 16.09344 0 0
6:52 am 06:52 Mostly Cloudy 63 17 54 12 73 73 Calm 30.03 1017 10 16.09344 0 0
7:52 am 07:52 Partly Cloudy 64 18 57 14 78 78 Calm 30.03 1017 10 16.09344 0 0
8:52 am 08:52 Mostly Sunny 70 21 54 12 57 57 Calm 30.03 1017 10 16.09344 0 0
9:52 am 09:52 Mostly Sunny 72 22 54 12 53 53 ENE 7 11 30.03 1017 10 16.09344 0 0
10:52 am 10:52 Partly Cloudy 73 23 54 12 50 50 NNE 5 7 30.03 1017 10 16.09344 0 0
11:52 am 11:52 Partly Cloudy 77 25 52 11 42 42 N 6 9 30.03 1017 10 16.09344 0 0
12:52 pm 12:52 Partly Cloudy 79 26 48 9 34 34 ENE 6 9 30 1016 10 16.09344 0 0
1:52 pm 13:52 Partly Cloudy 79 26 46 8 32 32 Calm 30 1016 10 16.09344 0 0
2:52 pm 14:52 Partly Cloudy 82 28 46 8 28 28 N 6 9 29.97 1015 10 16.09344 0 0
3:52 pm 15:52 Mostly Cloudy 81 27 46 8 30 30 NE 7 11 29.94 1014 10 16.09344 0 0
4:52 pm 16:52 Mostly Cloudy 82 28 45 7 26 26 N 5 7 29.94 1014 10 16.09344 0 0
5:52 pm 17:52 Cloudy 81 27 45 7 28 28 NW 7 11 29.97 1015 10 16.09344 0 0
6:52 pm 18:52 Cloudy 79 26 48 9 34 34 N 5 7 29.94 1014 10 16.09344 0 0
7:52 pm 19:52 Mostly Cloudy 75 24 46 8 36 36 Calm 29.97 1015 10 16.09344 0 0
8:52 pm 20:52 Mostly Cloudy 72 22 52 11 50 50 S 7 11 29.97 1015 10 16.09344 0 0
9:52 pm 21:52 Mostly Cloudy 70 21 50 10 50 50 S 6 9 30 1016 10 16.09344 0 0
10:52 pm 22:52 Mostly Cloudy 68 20 48 9 49 49 SSW 5 7 30 1016 10 16.09344 0 0
11:52 pm 23:52 Mostly Cloudy 66 19 48 9 52 52 SSW 3 6 30.03 1017 10 16.09344 0 0

Powered by AerisWeather